Time;durP1;ratioP1;P1;durP2;ratioP2;P2;SDS_P1;SDS_P2;PMS_P1;PMS_P2;Temp;Humidity;BMP_temperature;BMP_pressure;BME280_temperature;BME280_humidity;BME280_pressure;Samples;Min_cycle;Max_cycle;Signal;HPM_P1;HPM_P2
2022/07/16 00:01:31;;;;;;;5.60;2.78;;;16.60;65.10;;;;;;5078040;28;20383;-71
2022/07/16 00:03:59;;;;;;;6.35;3.22;;;16.60;65.20;;;;;;5077514;28;20400;-70
2022/07/16 00:06:27;;;;;;;7.78;3.70;;;16.50;65.70;;;;;;5087844;28;20062;-71
2022/07/16 00:08:53;;;;;;;6.68;3.22;;;16.30;65.90;;;;;;5061449;28;20048;-71
2022/07/16 00:11:19;;;;;;;6.75;3.28;;;16.40;66.10;;;;;;5077367;28;20117;-71
2022/07/16 00:13:46;;;;;;;7.78;3.67;;;16.30;66.30;;;;;;5085767;28;20070;-71
2022/07/16 00:16:12;;;;;;;8.25;3.10;;;16.30;66.50;;;;;;5074069;28;20105;-71
2022/07/16 00:21:23;;;;;;;7.82;3.47;;;16.30;66.80;;;;;;5069266;28;20040;-71
2022/07/16 00:23:49;;;;;;;8.27;3.88;;;16.30;66.90;;;;;;5069037;28;20371;-71
2022/07/16 00:26:14;;;;;;;6.90;3.42;;;16.20;66.90;;;;;;5083231;28;21379;-71
2022/07/16 00:28:40;;;;;;;7.38;3.58;;;16.20;67.00;;;;;;5078707;28;20056;-71
2022/07/16 00:31:07;;;;;;;7.25;3.22;;;16.20;67.00;;;;;;5076124;28;20032;-71
2022/07/16 00:33:32;;;;;;;6.65;3.65;;;16.20;66.90;;;;;;5070508;28;20051;-71
2022/07/16 00:35:58;;;;;;;8.25;3.95;;;16.30;67.00;;;;;;5084026;28;20123;-71
2022/07/16 00:38:24;;;;;;;8.77;3.88;;;16.30;67.00;;;;;;5072261;28;20463;-71
2022/07/16 00:40:50;;;;;;;7.85;3.78;;;16.30;66.90;;;;;;5087381;28;20032;-71
2022/07/16 00:43:15;;;;;;;6.70;3.38;;;16.20;67.00;;;;;;5078025;28;20029;-71
2022/07/16 00:45:41;;;;;;;7.20;3.60;;;16.30;67.00;;;;;;5078194;28;20124;-71
2022/07/16 00:48:08;;;;;;;7.45;3.42;;;16.20;66.90;;;;;;5077255;28;20555;-71
2022/07/16 00:50:36;;;;;;;8.20;3.80;;;16.20;66.90;;;;;;5070728;28;20123;-71
2022/07/16 00:53:03;;;;;;;7.55;4.00;;;16.20;66.90;;;;;;5077118;28;20090;-71
2022/07/16 00:55:29;;;;;;;7.78;3.80;;;16.20;66.80;;;;;;5083008;28;20487;-71
2022/07/16 00:57:58;;;;;;;7.80;3.90;;;16.10;66.80;;;;;;5082964;28;20028;-71
2022/07/16 01:00:25;;;;;;;6.10;3.55;;;16.10;67.00;;;;;;5086535;28;20028;-71
2022/07/16 01:02:51;;;;;;;7.45;4.13;;;16.10;67.20;;;;;;5084095;28;20044;-71
2022/07/16 01:05:18;;;;;;;6.70;3.67;;;16.10;67.40;;;;;;5076612;28;20055;-71
2022/07/16 01:07:44;;;;;;;8.30;3.80;;;16.00;67.60;;;;;;5069215;28;20040;-71
2022/07/16 01:10:11;;;;;;;7.72;3.75;;;16.00;67.80;;;;;;5077379;28;20048;-71
2022/07/16 01:12:38;;;;;;;9.48;4.72;;;15.90;67.90;;;;;;5074448;28;20033;-71
2022/07/16 01:15:05;;;;;;;8.68;4.57;;;15.90;67.90;;;;;;5077415;28;20110;-71
2022/07/16 01:17:31;;;;;;;8.90;4.55;;;15.90;67.90;;;;;;5075621;28;20035;-71
2022/07/16 01:19:56;;;;;;;8.50;4.60;;;15.90;67.90;;;;;;5084079;28;20064;-71
2022/07/16 01:22:24;;;;;;;9.13;4.38;;;15.80;67.90;;;;;;5077450;28;20056;-71
2022/07/16 01:24:52;;;;;;;7.28;4.40;;;15.80;68.00;;;;;;5070207;28;20037;-71
2022/07/16 01:27:19;;;;;;;7.93;4.45;;;15.80;68.00;;;;;;5072768;28;20033;-72
2022/07/16 01:29:46;;;;;;;8.32;4.30;;;15.80;68.30;;;;;;5078764;28;20051;-71
2022/07/16 01:32:12;;;;;;;7.45;4.40;;;15.80;68.20;;;;;;5074285;28;20044;-72
2022/07/16 01:34:38;;;;;;;7.47;3.85;;;15.70;68.10;;;;;;5081307;28;20040;-71
2022/07/16 01:37:06;;;;;;;7.50;4.63;;;15.70;68.30;;;;;;5080710;28;20111;-72
2022/07/16 01:39:34;;;;;;;7.88;5.25;;;15.60;68.70;;;;;;5076396;28;20051;-71
2022/07/16 01:42:02;;;;;;;8.55;4.65;;;15.60;68.70;;;;;;5086247;28;20043;-71
2022/07/16 01:44:29;;;;;;;7.97;3.78;;;15.50;68.90;;;;;;5082885;28;20047;-71
2022/07/16 01:46:57;;;;;;;7.40;4.00;;;15.50;69.00;;;;;;5081704;28;20510;-71
2022/07/16 01:49:23;;;;;;;8.20;4.55;;;15.50;69.10;;;;;;5081896;28;20029;-71
2022/07/16 01:51:49;;;;;;;9.68;4.80;;;15.50;69.20;;;;;;5078762;28;20494;-71
2022/07/16 01:54:15;;;;;;;9.27;4.70;;;15.40;69.20;;;;;;5080872;28;20040;-71
2022/07/16 01:56:41;;;;;;;9.63;4.80;;;15.40;69.50;;;;;;5089268;28;20163;-71
2022/07/16 01:59:07;;;;;;;7.38;4.40;;;15.40;69.60;;;;;;5077767;28;20123;-72
2022/07/16 02:01:32;;;;;;;9.20;4.95;;;15.40;69.50;;;;;;5078775;28;20381;-71
2022/07/16 02:03:58;;;;;;;8.60;5.35;;;15.40;69.50;;;;;;5080251;28;20041;-72
2022/07/16 02:06:24;;;;;;;10.80;5.80;;;15.40;69.60;;;;;;5080155;28;20032;-72
2022/07/16 02:08:50;;;;;;;8.98;4.53;;;15.40;69.60;;;;;;5091686;28;20056;-71
2022/07/16 02:11:16;;;;;;;7.30;4.53;;;15.40;69.80;;;;;;5080246;28;20449;-71
2022/07/16 02:13:42;;;;;;;9.05;4.70;;;15.40;70.10;;;;;;5080765;28;20123;-71
2022/07/16 02:16:09;;;;;;;9.82;4.60;;;15.40;70.10;;;;;;5070617;28;20063;-72
2022/07/16 02:18:35;;;;;;;8.15;4.72;;;15.30;70.00;;;;;;5079235;28;20127;-72
2022/07/16 02:21:01;;;;;;;11.00;5.00;;;15.30;70.00;;;;;;5083358;28;20475;-72
2022/07/16 02:23:27;;;;;;;8.77;5.10;;;15.30;70.10;;;;;;5079292;28;20044;-71
2022/07/16 02:25:53;;;;;;;8.18;5.07;;;15.30;70.20;;;;;;5090260;28;20086;-72
2022/07/16 02:28:18;;;;;;;10.05;5.22;;;15.20;70.30;;;;;;5083407;28;20064;-71
2022/07/16 02:30:46;;;;;;;8.57;4.90;;;15.10;70.50;;;;;;5081182;28;20063;-72
2022/07/16 02:33:15;;;;;;;10.85;5.15;;;15.10;70.80;;;;;;5082488;28;20044;-72
2022/07/16 02:35:40;;;;;;;11.75;6.10;;;15.00;70.90;;;;;;5075355;28;20047;-72
2022/07/16 02:38:06;;;;;;;11.52;6.13;;;15.00;71.10;;;;;;5080455;28;20040;-71
2022/07/16 02:40:33;;;;;;;8.48;5.53;;;15.00;71.30;;;;;;5078633;28;20119;-71
2022/07/16 02:43:00;;;;;;;9.75;5.53;;;15.00;71.40;;;;;;5080956;28;20029;-71
2022/07/16 02:45:26;;;;;;;11.13;6.32;;;15.00;71.30;;;;;;5081399;28;20052;-72
2022/07/16 02:47:51;;;;;;;9.90;5.70;;;15.00;71.30;;;;;;5080425;28;20468;-71
2022/07/16 02:50:18;;;;;;;9.77;5.22;;;14.90;71.40;;;;;;5079376;28;20467;-71
2022/07/16 02:52:44;;;;;;;8.70;5.20;;;15.00;71.40;;;;;;5086851;28;20029;-72
2022/07/16 02:55:09;;;;;;;10.07;5.82;;;15.00;71.50;;;;;;5081593;28;20044;-71
2022/07/16 02:57:35;;;;;;;9.38;5.80;;;15.00;71.60;;;;;;5075249;28;20442;-71
2022/07/16 03:00:01;;;;;;;8.90;5.20;;;15.00;71.60;;;;;;5079689;28;20502;-72
2022/07/16 03:02:26;;;;;;;9.90;5.63;;;14.90;71.70;;;;;;5083095;28;20395;-71
2022/07/16 03:04:52;;;;;;;10.50;5.80;;;14.90;71.90;;;;;;5081566;28;20063;-71
2022/07/16 03:07:18;;;;;;;11.73;5.88;;;14.80;71.90;;;;;;5071253;28;20037;-71
2022/07/16 03:09:43;;;;;;;10.00;6.40;;;14.90;71.90;;;;;;5077131;28;20368;-71
2022/07/16 03:12:09;;;;;;;9.30;5.55;;;14.80;71.90;;;;;;5088219;28;20059;-71
2022/07/16 03:14:35;;;;;;;12.40;6.28;;;14.90;72.10;;;;;;5070680;28;20045;-71
2022/07/16 03:17:01;;;;;;;9.50;6.20;;;14.90;72.20;;;;;;5069491;28;20553;-73
2022/07/16 03:19:27;;;;;;;9.77;6.10;;;14.80;72.20;;;;;;5079816;28;20063;-71
2022/07/16 03:21:52;;;;;;;9.85;5.57;;;14.80;72.10;;;;;;5078093;28;20406;-71
2022/07/16 03:24:18;;;;;;;9.25;5.88;;;14.90;72.10;;;;;;5080603;28;20043;-71
2022/07/16 03:26:44;;;;;;;10.30;6.10;;;14.90;72.10;;;;;;5071285;28;20036;-71
2022/07/16 03:29:09;;;;;;;12.30;6.35;;;14.90;72.10;;;;;;5078391;28;20044;-71
2022/07/16 03:31:35;;;;;;;10.23;6.03;;;14.80;72.00;;;;;;5090136;28;20039;-71
2022/07/16 03:34:00;;;;;;;9.98;6.18;;;14.80;72.10;;;;;;5082180;28;20143;-73
2022/07/16 03:36:26;;;;;;;9.70;6.22;;;14.90;72.00;;;;;;5079800;28;20036;-71
2022/07/16 03:39:04;;;;;;;12.60;6.75;;;14.80;72.20;;;;;;5070673;28;20044;-71
2022/07/16 03:41:31;;;;;;;12.25;7.30;;;14.80;72.30;;;;;;5081201;28;20112;-70
2022/07/16 03:43:58;;;;;;;11.93;7.10;;;14.80;72.40;;;;;;5082769;28;20047;-71
2022/07/16 03:46:23;;;;;;;12.95;6.97;;;14.80;72.40;;;;;;5079660;28;20028;-71
2022/07/16 03:48:49;;;;;;;13.07;7.47;;;14.70;72.60;;;;;;5078594;28;20039;-71
2022/07/16 03:51:15;;;;;;;11.13;7.35;;;14.80;72.60;;;;;;5077455;28;20452;-71
2022/07/16 03:53:41;;;;;;;11.00;7.30;;;14.80;72.60;;;;;;5077121;28;20131;-71
2022/07/16 03:56:07;;;;;;;10.30;7.28;;;14.90;72.70;;;;;;5084297;28;20479;-71
2022/07/16 03:58:33;;;;;;;11.75;6.90;;;14.80;72.70;;;;;;5086641;28;20051;-71
2022/07/16 04:00:58;;;;;;;10.75;7.18;;;14.90;72.70;;;;;;5074975;28;20033;-71
2022/07/16 04:03:25;;;;;;;12.57;7.18;;;14.80;72.70;;;;;;5078573;28;20032;-71
2022/07/16 04:05:51;;;;;;;12.65;6.82;;;14.90;72.70;;;;;;5082013;28;20032;-71
2022/07/16 04:08:17;;;;;;;11.82;6.78;;;14.80;73.00;;;;;;5072891;28;20056;-71
2022/07/16 04:10:43;;;;;;;10.02;6.38;;;14.80;72.90;;;;;;5072373;28;20388;-71
2022/07/16 04:13:09;;;;;;;9.40;6.20;;;14.90;72.70;;;;;;5071822;28;20036;-71
2022/07/16 04:15:35;;;;;;;12.18;6.38;;;14.80;72.70;;;;;;5083841;28;20025;-71
2022/07/16 04:18:00;;;;;;;12.02;6.68;;;14.80;72.60;;;;;;5089364;28;20070;-72
2022/07/16 04:20:27;;;;;;;10.00;6.03;;;14.90;72.80;;;;;;5084733;28;20372;-71
2022/07/16 04:22:52;;;;;;;8.50;6.13;;;14.90;72.80;;;;;;5084406;28;20040;-71
2022/07/16 04:25:19;;;;;;;9.45;6.15;;;14.90;72.90;;;;;;5090150;28;20036;-71
2022/07/16 04:27:45;;;;;;;9.15;6.38;;;14.90;72.90;;;;;;5072132;28;20035;-71
2022/07/16 04:30:11;;;;;;;11.60;5.90;;;14.90;72.90;;;;;;5079980;28;20399;-71
2022/07/16 04:32:38;;;;;;;9.75;6.10;;;15.00;72.80;;;;;;5076713;28;20127;-71
2022/07/16 04:35:05;;;;;;;11.65;6.57;;;15.00;72.60;;;;;;5073808;28;20040;-77
2022/07/16 04:37:31;;;;;;;9.75;6.13;;;15.00;72.50;;;;;;5079696;28;20028;-76
2022/07/16 04:39:56;;;;;;;10.18;6.85;;;15.10;72.50;;;;;;5079503;28;20101;-77
2022/07/16 04:42:22;;;;;;;10.70;7.05;;;15.20;72.30;;;;;;5075619;28;20032;-77
2022/07/16 04:44:48;;;;;;;8.40;6.07;;;15.20;72.10;;;;;;5076244;28;20672;-76
2022/07/16 04:47:13;;;;;;;10.32;6.57;;;15.30;72.20;;;;;;5071302;28;20028;-77
2022/07/16 04:49:39;;;;;;;11.02;7.07;;;15.40;72.20;;;;;;5081528;28;20041;-76
2022/07/16 04:52:06;;;;;;;10.02;6.43;;;15.50;71.80;;;;;;5083850;28;20040;-77
2022/07/16 04:54:32;;;;;;;12.77;7.43;;;15.60;71.50;;;;;;5076860;28;20119;-77
2022/07/16 04:56:58;;;;;;;10.32;7.00;;;15.70;71.20;;;;;;5081130;28;20128;-77
2022/07/16 04:59:24;;;;;;;9.38;6.35;;;15.80;71.10;;;;;;5078373;28;20369;-77
2022/07/16 05:01:50;;;;;;;12.57;7.43;;;15.90;70.90;;;;;;5067997;28;20099;-77
2022/07/16 05:04:15;;;;;;;11.65;7.45;;;16.10;70.70;;;;;;5088461;28;20052;-77
2022/07/16 05:06:41;;;;;;;9.70;6.70;;;16.10;70.60;;;;;;5075584;28;20361;-77
2022/07/16 05:09:07;;;;;;;12.60;7.32;;;16.30;70.40;;;;;;5068561;28;20072;-77
2022/07/16 05:11:32;;;;;;;11.57;7.53;;;16.40;69.90;;;;;;5068454;28;20040;-77
2022/07/16 05:13:58;;;;;;;12.93;7.68;;;16.40;69.70;;;;;;5077658;28;20399;-77
2022/07/16 05:16:24;;;;;;;9.50;6.90;;;16.40;70.10;;;;;;5074760;28;20083;-76
2022/07/16 05:18:50;;;;;;;10.55;6.35;;;16.50;69.60;;;;;;5069756;28;20037;-76
2022/07/16 05:21:16;;;;;;;12.07;7.20;;;16.70;69.40;;;;;;5086284;28;20081;-77
2022/07/16 05:23:42;;;;;;;12.55;6.97;;;16.90;68.70;;;;;;5089887;28;20036;-77
2022/07/16 05:26:08;;;;;;;10.75;7.07;;;17.10;68.60;;;;;;5079425;28;20484;-77
2022/07/16 05:28:34;;;;;;;15.20;7.40;;;17.50;67.90;;;;;;5070414;28;20036;-77
2022/07/16 05:31:00;;;;;;;10.57;7.22;;;18.30;67.00;;;;;;5076889;28;20032;-77
2022/07/16 05:33:25;;;;;;;9.25;6.50;;;19.40;63.00;;;;;;5070432;28;20064;-77
2022/07/16 05:35:51;;;;;;;12.65;7.25;;;20.80;59.40;;;;;;5082566;28;20039;-77
2022/07/16 05:38:17;;;;;;;9.75;7.10;;;21.20;57.30;;;;;;5066289;28;20030;-77
2022/07/16 05:40:43;;;;;;;10.93;6.00;;;21.80;56.20;;;;;;5066530;28;20033;-77
2022/07/16 05:43:09;;;;;;;14.68;6.53;;;22.60;54.10;;;;;;5084224;28;20115;-77
2022/07/16 05:45:35;;;;;;;13.25;7.13;;;23.00;53.20;;;;;;5081112;28;20107;-76
2022/07/16 05:48:00;;;;;;;9.48;5.90;;;23.20;52.60;;;;;;5087298;28;20093;-76
2022/07/16 05:50:26;;;;;;;10.32;6.38;;;23.30;52.70;;;;;;5070126;28;20075;-76
2022/07/16 05:52:52;;;;;;;13.88;6.35;;;23.30;53.00;;;;;;5068064;28;20029;-76
2022/07/16 05:55:18;;;;;;;10.63;5.90;;;23.30;53.10;;;;;;5086287;28;20044;-76
2022/07/16 05:57:43;;;;;;;10.27;6.50;;;23.50;53.20;;;;;;5075513;28;20043;-76
2022/07/16 06:00:11;;;;;;;10.30;6.00;;;23.20;53.60;;;;;;5077045;28;20479;-77
2022/07/16 06:02:38;;;;;;;14.15;7.18;;;22.60;55.90;;;;;;5079523;28;20032;-75
2022/07/16 06:05:04;;;;;;;12.77;6.88;;;22.10;57.50;;;;;;5081239;28;20098;-76
2022/07/16 06:07:30;;;;;;;10.65;6.88;;;21.10;61.00;;;;;;5069050;28;20484;-77
2022/07/16 06:09:56;;;;;;;12.38;6.57;;;20.50;63.60;;;;;;5069684;28;20055;-77
2022/07/16 06:12:21;;;;;;;10.52;6.25;;;20.00;66.00;;;;;;5083414;28;20036;-77
2022/07/16 06:14:47;;;;;;;12.50;6.55;;;19.70;67.30;;;;;;5067177;28;20046;-77
2022/07/16 06:17:13;;;;;;;11.13;6.65;;;19.60;68.00;;;;;;5072290;28;20049;-77
2022/07/16 06:19:43;;;;;;;10.48;6.63;;;19.50;69.20;;;;;;5083879;28;20032;-76
2022/07/16 06:22:09;;;;;;;11.93;6.38;;;19.60;69.80;;;;;;5085416;28;20479;-77
2022/07/16 06:24:36;;;;;;;11.10;5.97;;;19.50;70.00;;;;;;5070681;28;20063;-77
2022/07/16 06:27:02;;;;;;;11.43;5.80;;;19.60;70.30;;;;;;5076339;28;20536;-77
2022/07/16 06:29:28;;;;;;;12.25;6.28;;;19.50;71.00;;;;;;5073195;28;20119;-77
2022/07/16 06:31:54;;;;;;;12.18;6.25;;;19.40;71.50;;;;;;5078703;28;20127;-77
2022/07/16 06:34:20;;;;;;;12.00;5.38;;;19.40;71.90;;;;;;5074281;28;20594;-76
2022/07/16 06:36:46;;;;;;;12.38;5.40;;;19.60;71.70;;;;;;5081389;28;20115;-77
2022/07/16 06:39:12;;;;;;;12.25;5.47;;;19.60;72.10;;;;;;5088158;28;20036;-77
2022/07/16 06:41:38;;;;;;;9.32;4.70;;;19.80;71.30;;;;;;5089350;28;20119;-76
2022/07/16 06:44:06;;;;;;;11.57;4.78;;;19.90;71.40;;;;;;5083781;28;20659;-77
2022/07/16 06:46:32;;;;;;;9.43;4.32;;;20.10;71.60;;;;;;5086046;28;20482;-77
2022/07/16 06:48:58;;;;;;;8.98;4.35;;;20.10;70.90;;;;;;5074026;28;20032;-77
2022/07/16 06:51:24;;;;;;;9.43;4.43;;;20.20;70.80;;;;;;5081589;28;20481;-77
2022/07/16 06:53:49;;;;;;;8.50;3.70;;;20.40;71.10;;;;;;5072826;28;20037;-77
2022/07/16 06:56:15;;;;;;;7.82;3.70;;;20.50;70.10;;;;;;5077335;28;20089;-77
2022/07/16 06:58:41;;;;;;;6.88;3.30;;;20.60;70.30;;;;;;5078659;28;20039;-77
2022/07/16 07:01:08;;;;;;;7.75;3.53;;;20.60;69.60;;;;;;5071741;28;20033;-77
2022/07/16 07:03:34;;;;;;;6.50;3.08;;;20.70;69.40;;;;;;5078857;28;20039;-77
2022/07/16 07:06:00;;;;;;;8.27;3.10;;;20.80;68.70;;;;;;5073191;28;20050;-77
2022/07/16 07:08:25;;;;;;;6.38;2.70;;;20.80;69.20;;;;;;5078532;28;20032;-77
2022/07/16 07:10:51;;;;;;;6.45;2.58;;;21.10;68.30;;;;;;5090617;28;20040;-77
2022/07/16 07:13:17;;;;;;;10.35;2.75;;;21.40;66.70;;;;;;5070878;28;20024;-77
2022/07/16 07:15:42;;;;;;;5.38;2.20;;;21.30;67.10;;;;;;5077956;28;20432;-77
2022/07/16 07:18:08;;;;;;;4.97;2.25;;;21.40;66.10;;;;;;5069891;28;20043;-77
2022/07/16 07:20:34;;;;;;;5.53;1.95;;;21.50;64.50;;;;;;5076660;28;20036;-77
2022/07/16 07:23:00;;;;;;;7.90;1.90;;;21.60;64.90;;;;;;5080166;28;20046;-77
2022/07/16 07:25:26;;;;;;;5.18;1.98;;;21.60;63.70;;;;;;5079402;28;20472;-77
2022/07/16 07:27:52;;;;;;;5.28;1.95;;;21.30;65.10;;;;;;5077315;28;20074;-77
2022/07/16 07:30:17;;;;;;;5.50;2.10;;;21.30;65.40;;;;;;5079921;28;20432;-77
2022/07/16 07:32:43;;;;;;;6.93;2.33;;;21.60;64.20;;;;;;5069002;28;20032;-77
2022/07/16 07:35:09;;;;;;;6.07;2.00;;;21.50;64.50;;;;;;5086665;28;20059;-77
2022/07/16 07:37:35;;;;;;;5.35;2.03;;;21.40;64.40;;;;;;5084772;28;20365;-77
2022/07/16 07:40:03;;;;;;;9.27;2.47;;;21.70;63.70;;;;;;5081065;28;20040;-77
2022/07/16 07:42:30;;;;;;;8.25;1.92;;;21.80;63.00;;;;;;5072447;28;20067;-77
2022/07/16 07:44:55;;;;;;;4.97;2.10;;;22.20;61.30;;;;;;5073667;28;20032;-77
2022/07/16 07:47:21;;;;;;;7.18;1.90;;;22.30;61.90;;;;;;5079982;28;20085;-77
2022/07/16 07:49:47;;;;;;;4.40;1.60;;;22.10;61.70;;;;;;5076533;28;20036;-77
2022/07/16 07:52:13;;;;;;;4.70;1.65;;;22.30;61.10;;;;;;5078378;28;20388;-77
2022/07/16 07:54:39;;;;;;;5.63;1.80;;;22.30;59.60;;;;;;5076816;28;20039;-77
2022/07/16 07:57:05;;;;;;;5.65;1.95;;;22.40;59.90;;;;;;5072804;28;20036;-76
2022/07/16 07:59:31;;;;;;;5.88;1.92;;;22.00;60.70;;;;;;5073085;28;20035;-77
2022/07/16 08:01:57;;;;;;;6.05;2.33;;;22.30;59.90;;;;;;5082156;28;20061;-76
2022/07/16 08:04:22;;;;;;;6.28;1.65;;;22.30;60.60;;;;;;5069245;28;20127;-77
2022/07/16 08:06:48;;;;;;;6.30;1.80;;;22.60;59.40;;;;;;5079003;28;20028;-77
2022/07/16 08:09:14;;;;;;;3.65;1.60;;;22.90;58.90;;;;;;5076953;28;20056;-77
2022/07/16 08:11:39;;;;;;;5.70;1.90;;;22.90;58.20;;;;;;5069435;28;20380;-77
2022/07/16 08:14:05;;;;;;;5.47;2.15;;;23.10;57.70;;;;;;5074922;28;20169;-77
2022/07/16 08:16:31;;;;;;;3.80;1.67;;;23.20;58.60;;;;;;5076722;28;20032;-77
2022/07/16 08:18:56;;;;;;;5.38;1.55;;;23.20;55.10;;;;;;5082096;28;20024;-77
2022/07/16 08:21:22;;;;;;;5.05;1.45;;;22.60;54.90;;;;;;5078967;28;20025;-77
2022/07/16 08:26:32;;;;;;;4.18;1.60;;;22.60;57.10;;;;;;5079537;28;20082;-77
2022/07/16 08:28:58;;;;;;;5.30;1.70;;;22.60;56.30;;;;;;5075308;28;20048;-77
2022/07/16 08:31:24;;;;;;;4.57;1.75;;;22.60;56.00;;;;;;5075469;28;20513;-78
2022/07/16 08:33:49;;;;;;;3.92;1.60;;;22.90;56.00;;;;;;5070231;28;20056;-77
2022/07/16 08:36:15;;;;;;;6.28;1.75;;;23.60;56.00;;;;;;5072603;28;20055;-77
2022/07/16 08:38:41;;;;;;;5.82;1.88;;;23.50;55.60;;;;;;5077593;28;20248;-77
2022/07/16 08:41:07;;;;;;;3.53;1.55;;;23.10;56.20;;;;;;5074548;28;20039;-77
2022/07/16 08:43:33;;;;;;;4.90;2.15;;;22.80;57.50;;;;;;5078568;28;20032;-77
2022/07/16 08:45:59;;;;;;;5.95;1.98;;;22.70;57.50;;;;;;5072206;28;20116;-77
2022/07/16 08:48:25;;;;;;;3.78;1.50;;;22.80;58.40;;;;;;5081466;28;20028;-76
2022/07/16 08:50:53;;;;;;;4.50;1.55;;;22.80;57.80;;;;;;5080248;28;20036;-77
2022/07/16 08:53:22;;;;;;;4.65;1.88;;;22.80;58.00;;;;;;5074210;28;20051;-77
2022/07/16 08:55:52;;;;;;;6.68;1.95;;;23.00;57.80;;;;;;5088800;28;20086;-77
2022/07/16 08:58:18;;;;;;;3.63;1.42;;;22.60;57.70;;;;;;5071202;28;20483;-77
2022/07/16 09:00:45;;;;;;;7.90;1.88;;;22.60;58.20;;;;;;5076087;28;20124;-77
2022/07/16 09:03:14;;;;;;;4.15;1.52;;;22.90;58.20;;;;;;5075518;28;20702;-77
2022/07/16 09:05:43;;;;;;;3.58;1.33;;;23.10;56.00;;;;;;5076001;28;20032;-77
2022/07/16 09:08:09;;;;;;;3.95;1.30;;;23.40;55.60;;;;;;5073236;28;20040;-77
2022/07/16 09:10:37;;;;;;;3.08;1.10;;;23.90;54.70;;;;;;5068612;28;20035;-77
2022/07/16 09:13:03;;;;;;;2.85;1.25;;;24.20;52.80;;;;;;5077158;28;20503;-78
2022/07/16 09:15:36;;;;;;;4.18;1.27;;;24.40;51.30;;;;;;5076360;28;20123;-77
2022/07/16 09:18:21;;;;;;;2.83;1.23;;;24.20;52.00;;;;;;5085091;28;20545;-77
2022/07/16 09:20:48;;;;;;;4.18;1.50;;;23.50;53.80;;;;;;5076222;28;20055;-77
2022/07/16 09:23:20;;;;;;;5.97;1.70;;;23.10;55.00;;;;;;5078143;28;20472;-77
2022/07/16 09:25:53;;;;;;;4.07;1.40;;;23.20;54.50;;;;;;5089330;28;20107;-77
2022/07/16 09:28:19;;;;;;;7.45;1.50;;;23.50;53.30;;;;;;5079603;28;20036;-77
2022/07/16 09:30:45;;;;;;;2.53;1.48;;;23.30;54.40;;;;;;5073818;28;20045;-76
2022/07/16 09:33:16;;;;;;;2.85;1.00;;;23.50;52.30;;;;;;5075882;28;20089;-77
2022/07/16 09:35:42;;;;;;;3.40;1.30;;;23.90;52.20;;;;;;5069231;28;20036;-77
2022/07/16 09:38:09;;;;;;;4.88;1.60;;;24.20;52.80;;;;;;5063994;28;20048;-77
2022/07/16 09:40:37;;;;;;;4.00;1.38;;;24.10;51.00;;;;;;5084536;28;20029;-77
2022/07/16 09:43:25;;;;;;;4.13;1.30;;;23.80;51.90;;;;;;5074847;28;20127;-76
2022/07/16 09:46:01;;;;;;;5.78;1.30;;;24.10;52.00;;;;;;5080204;28;20407;-75
2022/07/16 09:48:31;;;;;;;4.75;1.40;;;24.40;48.90;;;;;;5073611;28;20063;-76
2022/07/16 09:51:12;;;;;;;3.53;1.10;;;24.30;51.40;;;;;;5073085;28;20107;-76
2022/07/16 09:53:40;;;;;;;2.88;1.13;;;24.30;49.70;;;;;;5084610;28;20484;-76
2022/07/16 09:56:09;;;;;;;5.57;1.42;;;24.50;51.10;;;;;;5076870;28;20074;-77
2022/07/16 09:58:36;;;;;;;4.10;1.10;;;24.50;49.20;;;;;;5081433;28;20482;-76
2022/07/16 10:01:04;;;;;;;4.03;1.58;;;24.30;50.20;;;;;;5075999;28;20048;-77
2022/07/16 10:03:30;;;;;;;2.95;1.15;;;24.50;49.40;;;;;;5088206;28;20071;-76
2022/07/16 10:05:56;;;;;;;2.25;1.35;;;24.50;48.10;;;;;;5083657;28;20032;-76
2022/07/16 10:08:23;;;;;;;3.42;1.30;;;24.40;47.20;;;;;;5083131;28;20032;-77
2022/07/16 10:10:49;;;;;;;2.08;1.27;;;24.60;47.60;;;;;;5075460;28;20039;-76
2022/07/16 10:13:17;;;;;;;4.22;1.20;;;24.70;46.90;;;;;;5082306;28;20047;-76
2022/07/16 10:15:43;;;;;;;3.75;1.15;;;24.60;46.20;;;;;;5078886;28;20041;-76
2022/07/16 10:18:35;;;;;;;5.55;1.40;;;24.50;45.80;;;;;;5077631;28;20531;-76
2022/07/16 10:21:04;;;;;;;3.85;1.42;;;24.60;45.00;;;;;;5073510;28;20067;-76
2022/07/16 10:23:31;;;;;;;2.03;1.13;;;24.60;43.90;;;;;;5084219;28;20119;-76
2022/07/16 10:25:59;;;;;;;2.97;1.33;;;24.60;44.50;;;;;;5072516;28;20047;-76
2022/07/16 10:28:52;;;;;;;2.42;1.30;;;24.50;44.30;;;;;;5087471;28;20043;-76
2022/07/16 10:31:35;;;;;;;3.20;1.38;;;24.60;43.90;;;;;;5065377;28;20032;-76
2022/07/16 10:34:13;;;;;;;4.20;1.35;;;24.80;43.90;;;;;;5080649;28;20372;-76
2022/07/16 10:36:45;;;;;;;4.45;1.15;;;24.80;43.30;;;;;;5079404;28;20044;-76
2022/07/16 10:39:14;;;;;;;4.63;1.50;;;24.60;43.50;;;;;;5087144;28;20039;-76
2022/07/16 10:41:51;;;;;;;5.32;1.77;;;25.00;44.20;;;;;;5084283;28;20128;-76
2022/07/16 10:44:17;;;;;;;2.60;1.20;;;25.30;42.50;;;;;;5064609;28;20043;-76
2022/07/16 10:47:03;;;;;;;2.47;1.33;;;25.60;42.90;;;;;;5080040;28;20144;-77
2022/07/16 10:49:30;;;;;;;3.97;1.30;;;26.10;42.20;;;;;;5071340;28;20059;-76
2022/07/16 10:51:57;;;;;;;4.70;1.50;;;25.70;43.50;;;;;;5072088;28;20056;-76
2022/07/16 10:54:35;;;;;;;3.88;1.55;;;25.60;43.10;;;;;;5084367;28;20043;-76
2022/07/16 10:57:12;;;;;;;3.33;1.33;;;25.50;43.60;;;;;;5089083;28;20028;-76
2022/07/16 10:59:40;;;;;;;3.35;1.55;;;25.40;43.40;;;;;;5078178;28;20380;-76
2022/07/16 11:02:11;;;;;;;4.70;1.85;;;25.40;43.00;;;;;;5069386;28;20040;-76
2022/07/16 11:04:45;;;;;;;5.55;1.77;;;25.50;42.70;;;;;;5089395;28;20054;-77
2022/07/16 11:07:16;;;;;;;3.70;1.38;;;25.60;43.60;;;;;;5072942;28;20032;-77
2022/07/16 11:09:45;;;;;;;4.97;1.73;;;26.10;42.20;;;;;;5075262;28;20062;-77
2022/07/16 11:12:16;;;;;;;4.28;1.50;;;26.10;40.70;;;;;;5072277;28;20097;-77
2022/07/16 11:14:48;;;;;;;5.65;1.60;;;25.80;41.00;;;;;;5075325;28;20054;-77
2022/07/16 11:17:15;;;;;;;3.03;1.60;;;25.80;41.30;;;;;;5073262;28;20062;-77
2022/07/16 11:19:50;;;;;;;4.30;1.45;;;25.90;40.30;;;;;;5088214;28;20383;-77
2022/07/16 11:22:20;;;;;;;2.75;1.30;;;26.10;41.20;;;;;;5080129;28;20070;-77
2022/07/16 11:24:52;;;;;;;3.08;1.67;;;26.00;40.40;;;;;;5066738;28;20052;-75
2022/07/16 11:27:23;;;;;;;3.50;1.50;;;26.00;40.50;;;;;;5081389;28;20090;-76
2022/07/16 11:29:56;;;;;;;4.70;1.60;;;25.90;40.80;;;;;;5067616;28;20425;-76
2022/07/16 11:32:21;;;;;;;3.15;1.48;;;26.00;42.10;;;;;;5069920;28;20115;-76
2022/07/16 11:34:48;;;;;;;3.67;1.63;;;26.10;40.70;;;;;;5082387;28;20126;-76
2022/07/16 11:37:14;;;;;;;4.53;1.60;;;25.90;40.10;;;;;;5081104;28;20483;-76
2022/07/16 11:39:40;;;;;;;2.45;1.40;;;26.00;39.60;;;;;;5079397;28;20115;-76
2022/07/16 11:42:06;;;;;;;2.78;1.50;;;25.70;39.70;;;;;;5080827;28;20063;-76
2022/07/16 11:44:35;;;;;;;5.88;1.80;;;25.80;39.50;;;;;;5077258;28;20494;-76
2022/07/16 11:47:04;;;;;;;4.57;1.63;;;25.60;39.70;;;;;;5080558;28;20387;-76
2022/07/16 11:49:32;;;;;;;6.25;1.70;;;25.50;41.20;;;;;;5079275;28;20502;-76
2022/07/16 11:52:24;;;;;;;6.05;1.70;;;25.40;40.70;;;;;;5069786;28;20032;-76
2022/07/16 11:54:51;;;;;;;5.53;1.92;;;25.70;40.90;;;;;;5079760;28;20399;-76
2022/07/16 11:57:17;;;;;;;3.90;1.42;;;25.80;39.50;;;;;;5076483;28;20039;-76
2022/07/16 11:59:47;;;;;;;3.33;1.42;;;25.60;39.90;;;;;;5076695;28;20028;-76
2022/07/16 12:02:14;;;;;;;2.85;1.42;;;25.30;40.40;;;;;;5077987;28;20377;-76
2022/07/16 12:04:42;;;;;;;4.57;1.58;;;25.40;41.30;;;;;;5078467;28;20464;-76
2022/07/16 12:07:16;;;;;;;4.68;1.80;;;26.10;40.00;;;;;;5070244;28;20063;-77
2022/07/16 12:09:45;;;;;;;;;;;26.20;39.40;;;;;;5074541;28;20048;-77
2022/07/16 12:12:24;;;;;;;5.18;1.52;;;26.30;39.30;;;;;;5069991;28;20155;-76
2022/07/16 12:14:53;;;;;;;4.32;1.50;;;26.10;38.80;;;;;;5084073;28;20059;-76
2022/07/16 12:17:24;;;;;;;4.85;1.90;;;25.70;39.70;;;;;;5061203;28;20362;-76
2022/07/16 12:20:19;;;;;;;3.85;1.70;;;25.60;40.20;;;;;;5077328;28;20036;-76
2022/07/16 12:23:01;;;;;;;3.72;1.55;;;26.10;39.50;;;;;;5065826;28;20029;-77
2022/07/16 12:25:34;;;;;;;3.75;1.60;;;26.10;39.70;;;;;;5085308;28;20065;-77
2022/07/16 12:28:06;;;;;;;2.80;1.40;;;26.10;40.30;;;;;;5068562;28;20498;-77
2022/07/16 12:30:56;;;;;;;5.53;1.83;;;25.90;40.00;;;;;;5076350;28;20027;-76
2022/07/16 12:33:26;;;;;;;7.80;1.98;;;26.10;40.50;;;;;;5077462;28;20078;-76
2022/07/16 12:35:58;;;;;;;3.65;1.50;;;26.20;39.80;;;;;;5082875;28;20472;-76
2022/07/16 12:39:02;;;;;;;3.90;1.70;;;26.00;41.00;;;;;;5070223;28;20492;-75
2022/07/16 12:41:43;;;;;;;5.03;1.70;;;26.00;40.80;;;;;;5068997;28;20038;-77
2022/07/16 12:44:17;;;;;;;3.90;1.75;;;26.60;39.20;;;;;;5079920;28;20044;-76
2022/07/16 12:46:46;;;;;;;5.78;1.70;;;26.50;39.10;;;;;;5081811;28;20040;-76
2022/07/16 12:49:13;;;;;;;7.82;1.83;;;26.30;39.20;;;;;;5074124;28;20050;-76
2022/07/16 12:51:45;;;;;;;3.88;1.60;;;26.30;40.30;;;;;;5085571;28;20036;-76
2022/07/16 12:54:13;;;;;;;5.35;1.83;;;26.30;39.10;;;;;;5068638;28;20045;-76